Time;durP1;ratioP1;P1;durP2;ratioP2;P2;SDS_P1;SDS_P2;PMS_P1;PMS_P2;Temp;Humidity;BMP_temperature;BMP_pressure;BME280_temperature;BME280_humidity;BME280_pressure;Samples;Min_cycle;Max_cycle;Signal;HPM_P1;HPM_P2
2021/03/03 00:04:17;;;;;;;;;;;5.30;99.90;;;;;;12702307;23;19999;-86
2021/03/03 00:09:18;;;;;;;;;;;5.20;99.90;;;;;;12702278;23;19944;-86
2021/03/03 00:14:19;;;;;;;;;;;6.20;99.90;;;;;;12700553;23;19920;-86
2021/03/03 00:19:21;;;;;;;;;;;6.60;99.90;;;;;;12699884;22;19974;-86
2021/03/03 00:24:22;;;;;;;;;;;5.40;99.90;;;;;;12701123;23;19920;-86
2021/03/03 00:29:26;;;;;;;;;;;3.80;99.90;;;;;;12701401;23;19995;-85
2021/03/03 00:34:27;;;;;;;;;;;6.40;99.90;;;;;;12677829;23;20000;-86
2021/03/03 00:39:30;;;;;;;;;;;7.10;99.90;;;;;;12726694;23;19995;-86
2021/03/03 00:44:32;;;;;;;;;;;5.40;99.90;;;;;;12727489;23;19974;-86
2021/03/03 00:49:33;;;;;;;;;;;6.10;99.90;;;;;;12703750;23;19921;-86
2021/03/03 00:54:34;;;;;;;;;;;7.00;99.90;;;;;;12729129;23;20302;-86
2021/03/03 00:59:36;;;;;;;;;;;5.40;99.90;;;;;;12679510;23;19992;-86
2021/03/03 01:04:38;;;;;;;;;;;5.40;99.90;;;;;;12703482;23;19968;-85
2021/03/03 01:09:39;;;;;;;;;;;5.40;99.90;;;;;;12729120;23;20015;-86
2021/03/03 01:14:40;;;;;;;;;;;6.30;99.90;;;;;;12678952;23;19921;-86
2021/03/03 01:19:41;;;;;;;;;;;6.30;99.90;;;;;;12703632;22;19995;-86
2021/03/03 01:24:43;;;;;;;;;;;7.20;99.90;;;;;;12729719;23;19987;-85
2021/03/03 01:29:44;;;;;;;;;;;5.40;99.90;;;;;;12703963;23;19976;-86
2021/03/03 01:34:45;;;;;;;;;;;5.60;99.90;;;;;;12704046;23;20039;-86
2021/03/03 01:39:49;;;;;;;;;;;5.50;99.90;;;;;;12679663;23;19920;-86
2021/03/03 01:44:50;;;;;;;;;;;6.60;99.90;;;;;;12704037;23;19925;-86
2021/03/03 01:49:52;;;;;;;;;;;8.10;99.90;;;;;;12704156;23;19999;-86
2021/03/03 01:54:53;;;;;;;;;;;7.20;99.90;;;;;;12681175;23;19996;-85
2021/03/03 01:59:54;;;;;;;;;;;5.40;99.90;;;;;;12678589;23;20353;-86
2021/03/03 02:04:56;;;;;;;;;;;5.30;99.90;;;;;;12679617;23;19995;-86
2021/03/03 02:10:00;;;;;;;;;;;6.40;99.90;;;;;;12728600;23;20302;-86
2021/03/03 02:15:03;;;;;;;;;;;5.40;99.90;;;;;;12703589;23;19948;-86
2021/03/03 02:20:07;;;;;;;;;;;5.40;99.90;;;;;;12665734;23;20392;-85
2021/03/03 02:25:22;;;;;;;;;;;5.50;99.90;;;;;;12667433;23;19921;-86
2021/03/03 02:30:24;;;;;;;;;;;5.30;99.90;;;;;;12666018;23;19941;-85
2021/03/03 02:35:26;;;;;;;;;;;5.20;99.90;;;;;;12666666;23;19996;-86
2021/03/03 02:40:28;;;;;;;;;;;5.10;99.90;;;;;;12667922;23;20004;-86
2021/03/03 02:45:29;;;;;;;;;;;5.00;99.90;;;;;;12665879;23;20405;-86
2021/03/03 02:50:31;;;;;;;;;;;7.30;99.90;;;;;;12666570;23;19992;-86
2021/03/03 02:55:32;;;;;;;;;;;4.70;99.90;;;;;;12666636;23;19927;-85
2021/03/03 03:00:35;;;;;;;;;;;5.50;99.90;;;;;;12666779;23;19921;-86
2021/03/03 03:05:38;;;;;;;;;;;7.60;99.90;;;;;;12666690;23;19921;-86
2021/03/03 03:10:40;;;;;;;;;;;4.80;99.90;;;;;;12665154;23;20696;-86
2021/03/03 03:15:42;;;;;;;;;;;4.90;99.90;;;;;;12666473;23;19997;-86
2021/03/03 03:20:45;;;;;;;;;;;4.90;99.90;;;;;;12665477;22;19996;-85
2021/03/03 03:25:47;;;;;;;;;;;4.70;99.90;;;;;;12667783;23;19925;-85
2021/03/03 03:30:50;;;;;;;;;;;4.10;99.90;;;;;;12642291;23;19921;-86
2021/03/03 03:35:58;;;;;;;;;;;4.20;99.90;;;;;;12665551;23;20372;-85
2021/03/03 03:41:00;;;;;;;;;;;3.90;99.90;;;;;;12665117;23;19921;-86
2021/03/03 03:46:02;;;;;;;;;;;3.70;99.90;;;;;;12666058;23;19991;-86
2021/03/03 03:51:04;;;;;;;;;;;3.70;99.90;;;;;;12665955;23;19941;-86
2021/03/03 03:56:06;;;;;;;;;;;3.30;99.90;;;;;;12665045;23;19929;-86
2021/03/03 04:01:07;;;;;;;;;;;3.70;99.90;;;;;;12666417;23;19963;-86
2021/03/03 04:06:08;;;;;;;;;;;5.80;99.90;;;;;;12666412;23;19991;-86
2021/03/03 04:11:10;;;;;;;;;;;3.90;99.90;;;;;;12666119;23;19920;-85
2021/03/03 04:16:11;;;;;;;;;;;4.00;99.90;;;;;;12668573;23;19952;-86
2021/03/03 04:21:13;;;;;;;;;;;5.60;99.90;;;;;;12718421;23;19920;-86
2021/03/03 04:26:14;;;;;;;;;;;3.50;99.90;;;;;;12677904;23;19921;-85
2021/03/03 04:31:15;;;;;;;;;;;3.50;99.90;;;;;;12701172;23;20397;-86
2021/03/03 04:36:17;;;;;;;;;;;5.70;99.90;;;;;;12676874;23;19920;-86
2021/03/03 04:41:18;;;;;;;;;;;6.10;99.90;;;;;;12726812;23;19987;-85
2021/03/03 04:46:19;;;;;;;;;;;5.30;99.90;;;;;;12700938;23;20411;-86
2021/03/03 04:51:22;;;;;;;;;;;3.40;99.90;;;;;;12676821;23;20349;-86
2021/03/03 04:56:25;;;;;;;;;;;3.40;99.90;;;;;;12701270;23;19931;-85
2021/03/03 05:01:27;;;;;;;;;;;3.40;99.90;;;;;;12701401;23;19927;-86
2021/03/03 05:06:28;;;;;;;;;;;3.40;99.90;;;;;;12677161;23;19992;-85
2021/03/03 05:11:29;;;;;;;;;;;4.70;99.90;;;;;;12726248;23;19995;-85
2021/03/03 05:16:30;;;;;;;;;;;3.60;99.90;;;;;;12701051;23;20001;-86
2021/03/03 05:21:32;;;;;;;;;;;3.60;99.90;;;;;;12936156;22;19919;-85
2021/03/03 05:26:33;;;;;;;;;;;3.00;99.90;;;;;;12959262;22;19937;-86
2021/03/03 05:31:35;;;;;;;;;;;3.40;99.90;;;;;;12934481;22;19919;-86
2021/03/03 05:36:36;;;;;;;;;;;5.30;99.90;;;;;;12962978;22;19999;-85
2021/03/03 05:41:37;;;;;;;;;;;3.60;99.90;;;;;;12962731;22;19930;-86
2021/03/03 05:46:39;;;;;;;;;;;5.80;99.90;;;;;;12936796;22;19926;-85
2021/03/03 05:51:41;;;;;;;;;;;5.20;99.90;;;;;;12962063;22;19919;-85
2021/03/03 05:56:43;;;;;;;;;;;3.10;99.90;;;;;;12937290;22;19990;-86
2021/03/03 06:01:45;;;;;;;;;;;3.10;99.90;;;;;;12961707;22;19923;-85
2021/03/03 06:06:57;;;;;;;;;;;5.20;99.90;;;;;;12963832;22;20328;-86
2021/03/03 06:11:58;;;;;;;;;;;3.00;99.90;;;;;;12962568;22;19994;-86
2021/03/03 06:17:00;;;;;;;;;;;3.00;99.90;;;;;;12961131;22;19925;-87
2021/03/03 06:22:22;;;;;;;;;;;5.10;99.90;;;;;;12962737;22;19919;-86
2021/03/03 06:27:24;;;;;;;;;;;2.90;99.90;;;;;;12962142;22;19947;-86
2021/03/03 06:32:25;;;;;;;;;;;2.90;99.90;;;;;;12961919;22;19927;-86
2021/03/03 06:37:26;;;;;;;;;;;2.90;99.90;;;;;;12961724;22;19919;-86
2021/03/03 06:42:31;;;;;;;;;;;2.90;99.90;;;;;;12961644;22;19923;-86
2021/03/03 06:47:32;;;;;;;;;;;4.00;99.90;;;;;;12935322;22;20015;-86
2021/03/03 06:52:38;;;;;;;;;;;4.10;99.90;;;;;;12961425;22;19919;-86
2021/03/03 06:57:39;;;;;;;;;;;3.30;99.90;;;;;;12961501;22;19995;-86
2021/03/03 07:02:43;;;;;;;;;;;5.30;99.90;;;;;;12935267;22;20296;-86
2021/03/03 07:07:59;;;;;;;;;;;3.20;99.90;;;;;;12935935;22;20418;-86
2021/03/03 07:13:00;;;;;;;;;;;3.40;99.90;;;;;;12960511;22;20344;-86
2021/03/03 07:18:02;;;;;;;;;;;3.80;99.90;;;;;;12960107;22;19929;-86
2021/03/03 07:23:03;;;;;;;;;;;4.80;99.90;;;;;;12934945;22;20347;-86
2021/03/03 07:28:05;;;;;;;;;;;4.00;99.90;;;;;;12960921;22;19991;-86
2021/03/03 07:33:06;;;;;;;;;;;4.30;99.90;;;;;;12935081;22;19923;-86
2021/03/03 07:38:10;;;;;;;;;;;4.80;99.90;;;;;;12935024;22;20336;-86
2021/03/03 07:43:12;;;;;;;;;;;6.50;99.90;;;;;;12959565;22;20355;-86
2021/03/03 07:48:13;;;;;;;;;;;5.40;99.90;;;;;;12958815;22;20003;-86
2021/03/03 07:53:16;;;;;;;;;;;7.10;99.90;;;;;;12933728;22;20006;-86
2021/03/03 07:58:20;;;;;;;;;;;6.70;99.90;;;;;;12935207;22;19950;-86
2021/03/03 08:03:39;;;;;;;;;;;6.10;99.90;;;;;;12960086;22;19923;-86
2021/03/03 08:08:41;;;;;;;;;;;6.30;99.90;;;;;;12960120;22;19923;-86
2021/03/03 08:13:45;;;;;;;;;;;6.70;99.90;;;;;;12960142;22;19982;-86
2021/03/03 08:18:49;;;;;;;;;;;6.30;99.90;;;;;;12960154;22;19957;-86
2021/03/03 08:23:51;;;;;;;;;;;6.80;99.90;;;;;;12959856;22;19926;-85
2021/03/03 08:28:52;;;;;;;;;;;7.10;99.90;;;;;;12986029;22;20350;-86
2021/03/03 08:33:55;;;;;;;;;;;7.60;99.90;;;;;;12936626;22;19919;-85
2021/03/03 08:38:56;;;;;;;;;;;7.70;99.90;;;;;;12962401;22;19920;-85
2021/03/03 08:43:59;;;;;;;;;;;8.10;99.90;;;;;;12960352;22;20321;-85
2021/03/03 08:49:00;;;;;;;;;;;8.00;99.90;;;;;;12985900;22;20417;-86
2021/03/03 08:54:06;;;;;;;;;;;9.00;99.90;;;;;;12959051;22;19965;-86
2021/03/03 08:59:08;;;;;;;;;;;10.90;99.90;;;;;;12960220;22;19923;-85
2021/03/03 09:04:13;;;;;;;;;;;11.80;99.90;;;;;;12960397;22;19923;-86
2021/03/03 09:09:14;;;;;;;;;;;9.70;99.90;;;;;;12936152;22;19950;-86
2021/03/03 09:14:19;;;;;;;;;;;11.10;99.90;;;;;;12962732;22;19939;-85
2021/03/03 09:19:20;;;;;;;;;;;11.90;99.90;;;;;;12988114;22;20342;-86
2021/03/03 09:24:24;;;;;;;;;;;11.50;99.90;;;;;;12959748;22;19923;-86
2021/03/03 09:29:27;;;;;;;;;;;12.10;99.90;;;;;;12986477;22;19946;-86
2021/03/03 09:34:28;;;;;;;;;;;12.20;99.90;;;;;;12958745;22;19927;-86
2021/03/03 09:39:31;;;;;;;;;;;12.80;99.90;;;;;;12937361;22;20198;-86
2021/03/03 09:44:43;;;;;;;;;;;12.20;99.90;;;;;;12959095;22;19950;-86
2021/03/03 09:49:44;;;;;;;;;;;12.30;99.90;;;;;;12959313;22;19946;-87
2021/03/03 09:54:46;;;;;;;;;;;12.00;99.90;;;;;;12933158;22;19926;-86
2021/03/03 09:59:49;;;;;;;;;;;12.20;99.90;;;;;;12985891;22;19982;-86
2021/03/03 10:04:50;;;;;;;;;;;12.10;99.90;;;;;;12985143;22;19925;-87
2021/03/03 10:09:58;;;;;;;;;;;13.30;99.90;;;;;;12959618;22;19923;-87
2021/03/03 10:15:01;;;;;;;;;;;12.50;99.90;;;;;;12983804;22;19990;-86
2021/03/03 10:20:05;;;;;;;;;;;12.50;99.90;;;;;;12917955;22;1560089;-86
2021/03/03 10:25:06;;;;;;;;;;;12.10;99.90;;;;;;12987954;22;20018;-86
2021/03/03 10:30:17;;;;;;;;;;;11.60;99.90;;;;;;12936755;22;19998;-87
2021/03/03 10:35:22;;;;;;;;;;;11.80;99.90;;;;;;12961981;22;19926;-87
2021/03/03 10:40:23;;;;;;;;;;;11.90;99.90;;;;;;12961570;22;19927;-87
2021/03/03 10:45:25;;;;;;;;;;;12.20;99.90;;;;;;12930875;22;20257;-87
2021/03/03 10:50:28;;;;;;;;;;;12.60;99.90;;;;;;12927897;22;19949;-87
2021/03/03 10:55:34;;;;;;;;;;;13.30;99.90;;;;;;12925640;22;20360;-87
2021/03/03 11:00:55;;;;;;;;;;;13.90;99.90;;;;;;12950027;22;19923;-86
2021/03/03 11:05:58;;;;;;;;;;;13.80;99.90;;;;;;12977884;22;19994;-87
2021/03/03 11:11:06;;;;;;;;;;;14.50;99.90;;;;;;12955513;22;19919;-88
2021/03/03 11:16:07;;;;;;;;;;;14.90;99.90;;;;;;12982240;22;20432;-88
2021/03/03 11:21:13;;;;;;;;;;;15.00;99.90;;;;;;12979173;22;19955;-87
2021/03/03 11:26:19;;;;;;;;;;;14.70;99.90;;;;;;12989390;22;20359;-87
2021/03/03 11:31:21;;;;;;;;;;;14.50;99.90;;;;;;12956143;22;19927;-87
2021/03/03 11:36:22;;;;;;;;;;;14.70;99.90;;;;;;12930634;22;19923;-87
2021/03/03 11:41:23;;;;;;;;;;;14.80;99.90;;;;;;12983105;22;20009;-87
2021/03/03 11:46:25;;;;;;;;;;;15.30;99.90;;;;;;12982847;22;19947;-87
2021/03/03 11:51:27;;;;;;;;;;;15.30;99.90;;;;;;12984395;22;19937;-86
2021/03/03 11:56:46;;;;;;;;;;;14.90;99.90;;;;;;12961528;22;19919;-86
2021/03/03 12:01:51;;;;;;;;;;;14.70;99.30;;;;;;12955122;22;19962;-86
2021/03/03 12:06:52;;;;;;;;;;;14.60;99.90;;;;;;12956671;22;19926;-86
2021/03/03 12:11:54;;;;;;;;;;;14.30;99.90;;;;;;12929789;22;19923;-86
2021/03/03 12:16:55;;;;;;;;;;;14.40;99.90;;;;;;12928775;22;19938;-86
2021/03/03 12:21:57;;;;;;;;;;;14.20;99.90;;;;;;12665854;23;19925;-85
2021/03/03 12:26:58;;;;;;;;;;;14.20;99.90;;;;;;12660126;23;20295;-87
2021/03/03 12:32:00;;;;;;;;;;;14.90;99.90;;;;;;12662144;22;19925;-87
2021/03/03 12:37:01;;;;;;;;;;;15.10;99.90;;;;;;12661037;23;20031;-87
2021/03/03 12:42:03;;;;;;;;;;;15.00;99.90;;;;;;12660854;23;20333;-87
2021/03/03 12:47:04;;;;;;;;;;;15.10;99.90;;;;;;12639300;23;19921;-88
2021/03/03 12:52:06;;;;;;;;;;;14.90;99.90;;;;;;12660349;23;19925;-88
2021/03/03 12:57:07;;;;;;;;;;;14.80;99.90;;;;;;12662378;23;19988;-87
2021/03/03 13:02:08;;;;;;;;;;;14.80;99.90;;;;;;12663030;23;19921;-87
2021/03/03 13:07:10;;;;;;;;;;;14.70;99.90;;;;;;12638355;23;19925;-88
2021/03/03 13:12:14;;;;;;;;;;;14.70;99.90;;;;;;12636851;23;19978;-88
2021/03/03 13:17:15;;;;;;;;;;;15.30;99.90;;;;;;12648798;22;20326;-88
2021/03/03 13:22:17;;;;;;;;;;;15.20;99.90;;;;;;12951037;22;20267;-88
2021/03/03 13:27:18;;;;;;;;;;;15.20;99.90;;;;;;12951469;22;19923;-88
2021/03/03 13:32:20;;;;;;;;;;;15.10;99.90;;;;;;12955945;22;19951;-88
2021/03/03 13:37:22;;;;;;;;;;;15.10;99.90;;;;;;12954963;22;19927;-88
2021/03/03 13:42:38;;;;;;;;;;;15.00;99.90;;;;;;12935282;22;19923;-88
2021/03/03 13:47:39;;;;;;;;;;;15.00;99.90;;;;;;12981407;22;20347;-88
2021/03/03 13:52:41;;;;;;;;;;;15.00;99.90;;;;;;12928971;22;19927;-88
2021/03/03 13:57:43;;;;;;;;;;;15.00;99.90;;;;;;12953745;22;19957;-87
2021/03/03 14:02:44;;;;;;;;;;;14.90;99.90;;;;;;12926494;22;20001;-88
2021/03/03 14:07:45;;;;;;;;;;;14.90;99.90;;;;;;12983671;22;19930;-88
2021/03/03 14:12:59;;;;;;;;;;;14.80;99.90;;;;;;12940748;22;19949;-88
2021/03/03 14:18:00;;;;;;;;;;;14.90;99.90;;;;;;12983852;22;19927;-88
2021/03/03 14:23:02;;;;;;;;;;;14.90;99.90;;;;;;12931381;22;20265;-88
2021/03/03 14:28:03;;;;;;;;;;;14.80;99.90;;;;;;12931151;22;19923;-87
2021/03/03 14:33:05;;;;;;;;;;;14.80;99.90;;;;;;12954574;22;19919;-87
2021/03/03 14:38:07;;;;;;;;;;;14.80;99.90;;;;;;12956450;22;19923;-87
2021/03/03 14:43:24;;;;;;;;;;;14.60;99.90;;;;;;12961666;22;20412;-88
2021/03/03 14:48:25;;;;;;;;;;;14.50;99.90;;;;;;12960123;22;19950;-87
2021/03/03 14:53:26;;;;;;;;;;;14.40;99.90;;;;;;12956596;22;19924;-87
2021/03/03 14:58:28;;;;;;;;;;;14.20;99.90;;;;;;12983351;22;20329;-87
2021/03/03 15:03:29;;;;;;;;;;;14.00;99.90;;;;;;12929904;22;20351;-87
2021/03/03 15:08:30;;;;;;;;;;;14.10;99.90;;;;;;12953402;22;20275;-87
2021/03/03 15:13:32;;;;;;;;;;;14.00;99.90;;;;;;12953828;22;19923;-87
2021/03/03 15:18:33;;;;;;;;;;;13.90;99.90;;;;;;12953024;22;19994;-87
2021/03/03 15:23:34;;;;;;;;;;;13.60;99.90;;;;;;12952814;22;20311;-87
2021/03/03 15:28:35;;;;;;;;;;;13.50;99.90;;;;;;12954121;22;19919;-87
2021/03/03 15:33:37;;;;;;;;;;;13.50;99.90;;;;;;12981551;22;20021;-87
2021/03/03 15:38:46;;;;;;;;;;;13.40;99.90;;;;;;10611988;27;19961;-86
2021/03/03 15:43:52;;;;;;;;;;;13.30;99.90;;;;;;10612169;28;20359;-86
2021/03/03 15:48:54;;;;;;;;;;;13.00;99.90;;;;;;10616476;27;20374;-86
2021/03/03 15:53:55;;;;;;;;;;;13.00;99.90;;;;;;10598790;28;20267;-87
2021/03/03 15:58:59;;;;;;;;;;;12.70;99.90;;;;;;10616706;28;19923;-87
2021/03/03 16:04:01;;;;;;;;;;;12.50;99.90;;;;;;10607902;28;19927;-87
2021/03/03 16:09:03;;;;;;;;;;;12.30;99.90;;;;;;10612560;28;19927;-86
2021/03/03 16:14:14;;;;;;;;;;;12.30;99.90;;;;;;10610607;27;19923;-86
2021/03/03 16:19:17;;;;;;;;;;;12.20;99.90;;;;;;10618033;27;20022;-87
2021/03/03 16:24:19;;;;;;;;;;;12.10;99.90;;;;;;10617161;27;20018;-87
2021/03/03 16:29:23;;;;;;;;;;;12.00;99.90;;;;;;10616377;27;19928;-86
2021/03/03 16:34:24;;;;;;;;;;;11.90;99.90;;;;;;10636635;27;19923;-86
2021/03/03 16:39:26;;;;;;;;;;;11.80;99.90;;;;;;10631813;27;19983;-86
2021/03/03 16:44:32;;;;;;;;;;;11.80;99.90;;;;;;10618999;28;19936;-86
2021/03/03 16:49:33;;;;;;;;;;;11.60;99.90;;;;;;10583825;28;19939;-86
2021/03/03 16:54:35;;;;;;;;;;;12.40;99.90;;;;;;10555304;28;19980;-86
2021/03/03 16:59:37;;;;;;;;;;;11.50;99.90;;;;;;10579571;28;19928;-87
2021/03/03 17:04:39;;;;;;;;;;;11.30;99.90;;;;;;10578722;28;19970;-87
2021/03/03 17:09:40;;;;;;;;;;;11.20;99.90;;;;;;10528340;28;19928;-87
2021/03/03 17:15:00;;;;;;;;;;;11.10;99.90;;;;;;10563613;28;19979;-87
2021/03/03 17:20:02;;;;;;;;;;;11.10;99.90;;;;;;10534729;22;19951;-87
2021/03/03 17:25:04;;;;;;;;;;;11.00;99.90;;;;;;10481700;28;20015;-86
2021/03/03 17:30:07;;;;;;;;;;;11.10;99.90;;;;;;10460773;28;19929;-87
2021/03/03 17:35:09;;;;;;;;;;;10.90;99.90;;;;;;10459597;28;19928;-87
2021/03/03 17:40:10;;;;;;;;;;;10.70;99.90;;;;;;10477907;28;19950;-86
2021/03/03 17:45:23;;;;;;;;;;;10.70;99.90;;;;;;10479437;28;19934;-87
2021/03/03 17:50:24;;;;;;;;;;;10.70;99.90;;;;;;10464546;28;19982;-86
2021/03/03 17:55:27;;;;;;;;;;;10.50;99.90;;;;;;10461878;28;19935;-86
2021/03/03 18:00:28;;;;;;;;;;;10.60;99.90;;;;;;10493431;28;19936;-86
2021/03/03 18:05:30;;;;;;;;;;;10.70;99.90;;;;;;10492138;28;19991;-86
2021/03/03 18:10:31;;;;;;;;;;;10.40;99.90;;;;;;10457227;28;19929;-86
2021/03/03 18:15:45;;;;;;;;;;;10.30;99.90;;;;;;10487640;28;20527;-86
2021/03/03 18:20:48;;;;;;;;;;;10.10;99.90;;;;;;10488711;28;19974;-86
2021/03/03 18:25:49;;;;;;;;;;;10.10;99.90;;;;;;10490695;28;19932;-86
2021/03/03 18:30:51;;;;;;;;;;;9.90;99.90;;;;;;10474180;28;19928;-86
2021/03/03 18:35:52;;;;;;;;;;;9.70;99.90;;;;;;10457567;28;19928;-86
2021/03/03 18:40:54;;;;;;;;;;;9.60;99.90;;;;;;10474351;28;19935;-86
2021/03/03 18:46:09;;;;;;;;;;;9.70;99.90;;;;;;10475891;28;20324;-86
2021/03/03 18:51:11;;;;;;;;;;;9.50;99.90;;;;;;10474123;28;19935;-86
2021/03/03 18:56:13;;;;;;;;;;;9.80;99.90;;;;;;10472792;28;19928;-86
2021/03/03 19:01:14;;;;;;;;;;;9.20;99.90;;;;;;10491157;28;19939;-86
2021/03/03 19:06:17;;;;;;;;;;;9.30;99.90;;;;;;10472709;28;20500;-86
2021/03/03 19:11:18;;;;;;;;;;;9.50;99.90;;;;;;10491387;28;19928;-86
2021/03/03 19:16:33;;;;;;;;;;;9.10;99.90;;;;;;10474888;28;19932;-86
2021/03/03 19:21:35;;;;;;;;;;;9.20;99.90;;;;;;10456201;28;20353;-86
2021/03/03 19:26:38;;;;;;;;;;;8.80;99.90;;;;;;10473625;28;19931;-86
2021/03/03 19:31:40;;;;;;;;;;;8.80;99.90;;;;;;10455498;28;19932;-86
2021/03/03 19:36:42;;;;;;;;;;;8.80;99.90;;;;;;10489180;28;20017;-86
2021/03/03 19:41:43;;;;;;;;;;;8.40;99.90;;;;;;10472809;28;20375;-88
2021/03/03 19:46:56;;;;;;;;;;;9.80;99.90;;;;;;10481090;28;19928;-87
2021/03/03 19:51:58;;;;;;;;;;;8.00;99.90;;;;;;10470663;28;19929;-87
2021/03/03 19:56:59;;;;;;;;;;;8.30;99.90;;;;;;10447641;28;20383;-87
2021/03/03 20:02:01;;;;;;;;;;;8.20;99.90;;;;;;10463473;28;20031;-87
2021/03/03 20:07:03;;;;;;;;;;;8.30;99.90;;;;;;10489744;28;20384;-87
2021/03/03 20:12:05;;;;;;;;;;;7.90;99.90;;;;;;10487431;28;19971;-87
2021/03/03 20:17:20;;;;;;;;;;;8.20;99.90;;;;;;10488115;28;20274;-87
2021/03/03 20:22:22;;;;;;;;;;;8.10;99.90;;;;;;10473610;28;19936;-88
2021/03/03 20:27:23;;;;;;;;;;;8.10;99.90;;;;;;10478864;28;19928;-88
2021/03/03 20:32:25;;;;;;;;;;;8.20;99.90;;;;;;10496565;28;20299;-87
2021/03/03 20:37:26;;;;;;;;;;;8.00;99.90;;;;;;10496664;28;19928;-88
2021/03/03 20:42:27;;;;;;;;;;;8.00;99.90;;;;;;10478668;28;19928;-87
2021/03/03 20:47:39;;;;;;;;;;;7.90;99.90;;;;;;10462678;28;19964;-87
2021/03/03 20:52:45;;;;;;;;;;;7.50;99.90;;;;;;10474734;28;19929;-87
2021/03/03 20:57:47;;;;;;;;;;;7.30;99.90;;;;;;10473230;28;20409;-87
2021/03/03 21:02:49;;;;;;;;;;;7.50;99.90;;;;;;10461757;28;19934;-87
2021/03/03 21:07:51;;;;;;;;;;;7.50;99.90;;;;;;10497061;28;19964;-87
2021/03/03 21:12:52;;;;;;;;;;;8.90;99.90;;;;;;10478873;28;19931;-87
2021/03/03 21:18:03;;;;;;;;;;;7.10;99.90;;;;;;10478302;28;19982;-87
2021/03/03 21:23:04;;;;;;;;;;;6.80;99.90;;;;;;10460466;28;20359;-87
2021/03/03 21:28:06;;;;;;;;;;;7.20;99.90;;;;;;10494874;28;19928;-88
2021/03/03 21:33:08;;;;;;;;;;;7.00;99.90;;;;;;10476999;28;19930;-87
2021/03/03 21:38:09;;;;;;;;;;;7.30;99.90;;;;;;10475946;28;20407;-88
2021/03/03 21:43:31;;;;;;;;;;;6.80;99.90;;;;;;10494305;28;19929;-87
2021/03/03 21:48:32;;;;;;;;;;;6.70;99.90;;;;;;10475738;28;19924;-87
2021/03/03 21:53:33;;;;;;;;;;;8.30;99.90;;;;;;10476196;28;19928;-87
2021/03/03 21:58:34;;;;;;;;;;;7.40;99.90;;;;;;10493217;28;20295;-87
2021/03/03 22:03:36;;;;;;;;;;;6.60;99.90;;;;;;10459621;28;19983;-87
2021/03/03 22:08:37;;;;;;;;;;;7.10;99.90;;;;;;10475201;28;19951;-87
2021/03/03 22:13:38;;;;;;;;;;;6.40;99.90;;;;;;10458703;28;19925;-87
2021/03/03 22:18:48;;;;;;;;;;;7.70;99.90;;;;;;10492560;28;20276;-87
2021/03/03 22:23:50;;;;;;;;;;;5.90;99.90;;;;;;10474681;28;19935;-87
2021/03/03 22:28:52;;;;;;;;;;;5.30;99.90;;;;;;10491639;28;19958;-87
2021/03/03 22:33:53;;;;;;;;;;;5.60;99.90;;;;;;10476452;28;19928;-87
2021/03/03 22:38:55;;;;;;;;;;;5.40;99.90;;;;;;10480813;28;19935;-87
2021/03/03 22:43:56;;;;;;;;;;;6.90;99.90;;;;;;10479509;28;20405;-87
2021/03/03 22:49:08;;;;;;;;;;;6.50;99.90;;;;;;10466499;28;19924;-87
2021/03/03 22:54:09;;;;;;;;;;;5.50;99.90;;;;;;10463160;28;20276;-87
2021/03/03 22:59:11;;;;;;;;;;;5.20;99.90;;;;;;10480040;28;19943;-87
2021/03/03 23:04:12;;;;;;;;;;;5.60;99.90;;;;;;10497767;28;20345;-87
2021/03/03 23:09:14;;;;;;;;;;;6.10;99.90;;;;;;10479455;28;19931;-87
2021/03/03 23:14:16;;;;;;;;;;;7.50;99.90;;;;;;10479226;28;20283;-87
2021/03/03 23:19:30;;;;;;;;;;;7.30;99.90;;;;;;10496859;28;19924;-87
2021/03/03 23:24:32;;;;;;;;;;;5.70;99.90;;;;;;10478645;28;19928;-86
2021/03/03 23:29:35;;;;;;;;;;;5.60;99.90;;;;;;10478954;28;20038;-86
2021/03/03 23:34:37;;;;;;;;;;;6.40;99.90;;;;;;10503589;22;19932;-87
2021/03/03 23:39:38;;;;;;;;;;;5.70;99.90;;;;;;10494732;28;20293;-87
2021/03/03 23:44:39;;;;;;;;;;;7.50;99.90;;;;;;10494849;28;19931;-87
2021/03/03 23:49:54;;;;;;;;;;;5.70;99.90;;;;;;10494852;28;19924;-87
2021/03/03 23:54:55;;;;;;;;;;;5.60;99.90;;;;;;10495098;28;19925;-87
2021/03/03 23:59:56;;;;;;;;;;;5.70;99.90;;;;;;10485126;28;20338;-87
